createdAt,value
2024-02-18T00:02:08.750Z,11.70
2024-02-18T00:04:35.527Z,11.70
2024-02-18T00:07:03.424Z,11.70
2024-02-18T00:09:30.832Z,11.60
2024-02-18T00:11:58.187Z,11.60
2024-02-18T00:14:25.260Z,11.60
2024-02-18T00:16:54.482Z,11.60
2024-02-18T00:19:21.436Z,11.60
2024-02-18T00:21:48.415Z,11.60
2024-02-18T00:24:16.713Z,11.60
2024-02-18T00:26:57.786Z,11.60
2024-02-18T00:29:26.212Z,11.60
2024-02-18T00:31:53.189Z,11.50
2024-02-18T00:34:24.382Z,11.50
2024-02-18T00:36:55.324Z,11.50
2024-02-18T00:39:22.234Z,11.50
2024-02-18T00:41:49.127Z,11.50
2024-02-18T00:44:15.835Z,11.50
2024-02-18T00:46:48.298Z,11.50
2024-02-18T00:49:23.739Z,11.50
2024-02-18T00:51:50.944Z,11.40
2024-02-18T00:54:18.006Z,11.40
2024-02-18T00:56:44.909Z,11.50
2024-02-18T00:59:11.633Z,11.40
2024-02-18T01:01:41.235Z,11.40
2024-02-18T01:04:08.109Z,11.40
2024-02-18T01:06:34.847Z,11.40
2024-02-18T01:09:02.023Z,11.40
2024-02-18T01:11:32.099Z,11.50
2024-02-18T01:13:58.847Z,11.40
2024-02-18T01:16:25.584Z,11.40
2024-02-18T01:18:52.479Z,11.40
2024-02-18T01:21:19.597Z,11.40
2024-02-18T01:23:46.505Z,11.40
2024-02-18T01:26:13.569Z,11.40
2024-02-18T01:28:42.323Z,11.40
2024-02-18T01:31:09.240Z,11.50
2024-02-18T01:33:35.972Z,11.40
2024-02-18T01:36:05.848Z,11.50
2024-02-18T01:38:33.662Z,11.50
2024-02-18T01:41:00.377Z,11.50
2024-02-18T01:43:27.348Z,11.50
2024-02-18T01:45:57.045Z,11.50
2024-02-18T01:48:25.425Z,11.50
2024-02-18T01:50:52.781Z,11.50
2024-02-18T01:53:20.144Z,11.50
2024-02-18T01:55:50.168Z,11.60
2024-02-18T01:58:17.979Z,11.50
2024-02-18T02:00:45.600Z,11.60
2024-02-18T02:03:14.285Z,11.50
2024-02-18T02:05:42.513Z,11.60
2024-02-18T02:08:09.334Z,11.60
2024-02-18T02:10:36.083Z,11.60
2024-02-18T02:13:04.176Z,11.60
2024-02-18T02:15:31.058Z,11.60
2024-02-18T02:17:57.982Z,11.60
2024-02-18T02:20:24.796Z,11.60
2024-02-18T02:22:51.808Z,11.60
2024-02-18T02:25:18.769Z,11.60
2024-02-18T02:27:49.751Z,11.60
2024-02-18T02:30:21.582Z,11.60
2024-02-18T02:32:48.427Z,11.60
2024-02-18T02:35:16.719Z,11.60
2024-02-18T02:37:43.605Z,11.60
2024-02-18T02:40:10.845Z,11.60
2024-02-18T02:42:37.590Z,11.60
2024-02-18T02:45:04.760Z,11.60
2024-02-18T02:47:31.565Z,11.60
2024-02-18T02:49:58.461Z,11.60
2024-02-18T02:52:25.276Z,11.60
2024-02-18T02:54:52.072Z,11.60
2024-02-18T02:57:18.906Z,11.60
2024-02-18T02:59:45.657Z,11.70
2024-02-18T03:02:12.363Z,11.70
2024-02-18T03:04:41.805Z,11.60
2024-02-18T03:07:08.582Z,11.70
2024-02-18T03:09:37.530Z,11.70
2024-02-18T03:12:04.835Z,11.60
2024-02-18T03:14:32.821Z,11.60
2024-02-18T03:17:02.226Z,11.70
2024-02-18T03:19:29.404Z,11.70
2024-02-18T03:21:56.272Z,11.70
2024-02-18T03:24:23.077Z,11.70
2024-02-18T03:26:49.838Z,11.70
2024-02-18T03:29:16.589Z,11.70
2024-02-18T03:31:43.500Z,11.70
2024-02-18T03:34:10.224Z,11.70
2024-02-18T03:36:40.076Z,11.70
2024-02-18T03:39:06.815Z,11.70
2024-02-18T03:41:33.598Z,11.70
2024-02-18T03:44:00.345Z,11.70
2024-02-18T03:46:27.065Z,11.70
2024-02-18T03:48:54.039Z,11.70
2024-02-18T03:51:21.005Z,11.70
2024-02-18T03:53:48.404Z,11.70
2024-02-18T03:56:15.144Z,11.70
2024-02-18T03:58:41.965Z,11.60
2024-02-18T04:01:08.725Z,11.60
2024-02-18T04:03:35.646Z,11.60
2024-02-18T04:06:02.397Z,11.50
2024-02-18T04:08:29.183Z,11.50
2024-02-18T04:10:55.982Z,11.50
2024-02-18T04:13:22.747Z,11.40
2024-02-18T04:15:49.488Z,11.30
2024-02-18T04:18:17.169Z,11.40
2024-02-18T04:20:44.004Z,11.30
2024-02-18T04:23:11.138Z,11.30
2024-02-18T04:25:37.843Z,11.30
2024-02-18T04:28:05.224Z,11.20
2024-02-18T04:30:32.163Z,11.20
2024-02-18T04:32:58.872Z,11.20
2024-02-18T04:35:25.588Z,11.20
2024-02-18T04:37:52.458Z,11.20
2024-02-18T04:40:22.061Z,11.20
2024-02-18T04:42:48.796Z,11.10
2024-02-18T04:45:15.611Z,11.10
2024-02-18T04:47:42.374Z,11.10
2024-02-18T04:50:09.540Z,11.10
2024-02-18T04:52:36.299Z,11.00
2024-02-18T04:55:04.144Z,11.00
2024-02-18T04:57:31.211Z,11.00
2024-02-18T04:59:58.065Z,11.00
2024-02-18T05:02:24.731Z,11.00
2024-02-18T05:04:51.381Z,11.00
2024-02-18T05:07:18.195Z,10.90
2024-02-18T05:09:44.918Z,10.90
2024-02-18T05:12:11.557Z,10.90
2024-02-18T05:14:38.246Z,10.90
2024-02-18T05:17:05.311Z,10.90
2024-02-18T05:19:32.096Z,10.90
2024-02-18T05:21:59.664Z,10.90
2024-02-18T05:24:26.468Z,10.90
2024-02-18T05:26:53.258Z,10.90
2024-02-18T05:29:20.041Z,10.90
2024-02-18T05:31:46.824Z,10.80
2024-02-18T05:34:13.945Z,10.80
2024-02-18T05:36:44.840Z,10.80
2024-02-18T05:39:14.529Z,10.80
2024-02-18T05:41:41.861Z,10.80
2024-02-18T05:44:08.694Z,10.80
2024-02-18T05:46:35.481Z,10.80
2024-02-18T05:49:02.812Z,10.80
2024-02-18T05:51:32.834Z,10.80
2024-02-18T05:54:02.573Z,10.80
2024-02-18T05:56:31.913Z,10.70
2024-02-18T05:58:58.545Z,10.70
2024-02-18T06:01:25.358Z,10.70
2024-02-18T06:03:52.096Z,10.70
2024-02-18T06:06:21.931Z,10.60
2024-02-18T06:08:48.651Z,10.60
2024-02-18T06:11:20.746Z,10.60
2024-02-18T06:13:48.245Z,10.60
2024-02-18T06:16:15.715Z,10.50
2024-02-18T06:18:45.000Z,10.50
2024-02-18T06:21:20.977Z,10.50
2024-02-18T06:23:48.213Z,10.50
2024-02-18T06:26:16.227Z,10.50
2024-02-18T06:28:43.388Z,10.40
2024-02-18T06:31:10.126Z,10.40
2024-02-18T06:33:37.169Z,10.40
2024-02-18T06:36:04.368Z,10.40
2024-02-18T06:38:31.101Z,10.40
2024-02-18T06:41:01.109Z,10.40
2024-02-18T06:43:29.158Z,10.40
2024-02-18T06:45:55.967Z,10.40
2024-02-18T06:48:23.157Z,10.40
2024-02-18T06:50:57.341Z,10.30
2024-02-18T06:53:26.936Z,10.30
2024-02-18T06:55:53.751Z,10.30
2024-02-18T06:58:21.438Z,10.30
2024-02-18T07:00:48.240Z,10.30
2024-02-18T07:03:16.249Z,10.30
2024-02-18T07:05:43.629Z,10.30
2024-02-18T07:08:10.320Z,10.30
2024-02-18T07:10:37.260Z,10.30
2024-02-18T07:13:06.804Z,10.20
2024-02-18T07:15:33.654Z,10.30
2024-02-18T07:18:00.603Z,10.30
2024-02-18T07:20:27.506Z,10.20
2024-02-18T07:22:56.300Z,10.20
2024-02-18T07:25:23.093Z,10.20
2024-02-18T07:27:49.845Z,10.20
2024-02-18T07:30:16.542Z,10.20
2024-02-18T07:32:43.275Z,10.20
2024-02-18T07:35:10.076Z,10.20
2024-02-18T07:37:36.842Z,10.20
2024-02-18T07:40:07.324Z,10.20
2024-02-18T07:42:34.117Z,10.10
2024-02-18T07:45:00.906Z,10.10
2024-02-18T07:47:27.837Z,10.10
2024-02-18T07:49:57.265Z,10.10
2024-02-18T07:52:24.056Z,10.10
2024-02-18T07:54:50.743Z,10.10
2024-02-18T07:57:17.664Z,10.00
2024-02-18T07:59:44.588Z,10.10
2024-02-18T08:02:20.141Z,10.10
2024-02-18T08:04:47.001Z,10.00
2024-02-18T08:07:16.364Z,10.00
2024-02-18T08:09:43.620Z,10.00
2024-02-18T08:12:10.545Z,9.90
2024-02-18T08:14:37.339Z,9.90
2024-02-18T08:17:04.147Z,9.90
2024-02-18T08:19:32.866Z,9.90
2024-02-18T08:21:59.730Z,9.90
2024-02-18T08:24:30.599Z,9.90
2024-02-18T08:26:59.957Z,9.90
2024-02-18T08:29:30.001Z,9.80
2024-02-18T08:31:58.417Z,9.80
2024-02-18T08:34:28.296Z,9.80
2024-02-18T08:36:58.201Z,9.80
2024-02-18T08:39:27.579Z,9.80
2024-02-18T08:41:56.188Z,9.80
2024-02-18T08:44:23.472Z,9.70
2024-02-18T08:46:51.678Z,9.70
2024-02-18T08:49:21.779Z,9.70
2024-02-18T08:51:52.833Z,9.70
2024-02-18T08:54:19.825Z,9.70
2024-02-18T08:56:46.791Z,9.70
2024-02-18T08:59:13.554Z,9.60
2024-02-18T09:01:40.421Z,9.60
2024-02-18T09:04:10.387Z,9.60
2024-02-18T09:06:38.439Z,9.60
2024-02-18T09:09:05.201Z,9.60
2024-02-18T09:11:32.032Z,9.60
2024-02-18T09:13:58.847Z,9.60
2024-02-18T09:16:25.526Z,9.70
2024-02-18T09:18:52.318Z,9.60
2024-02-18T09:21:19.530Z,9.70
2024-02-18T09:23:46.228Z,9.70
2024-02-18T09:26:13.042Z,9.60
2024-02-18T09:28:39.944Z,9.70
2024-02-18T09:31:09.682Z,9.70
2024-02-18T09:33:36.999Z,9.70
2024-02-18T09:36:03.988Z,9.70
2024-02-18T09:38:31.249Z,9.70
2024-02-18T09:40:58.173Z,9.70
2024-02-18T09:43:27.996Z,9.70
2024-02-18T09:46:00.735Z,9.80
2024-02-18T09:48:28.463Z,9.70
2024-02-18T09:50:55.320Z,9.70
2024-02-18T09:53:22.085Z,9.70
2024-02-18T09:55:49.973Z,9.80
2024-02-18T09:58:17.693Z,9.70
2024-02-18T10:00:44.854Z,9.70
2024-02-18T10:03:11.655Z,9.70
2024-02-18T10:05:38.375Z,9.80
2024-02-18T10:08:05.500Z,9.80
2024-02-18T10:10:33.820Z,9.80
2024-02-18T10:13:06.251Z,9.80
2024-02-18T10:15:33.198Z,9.90
2024-02-18T10:18:00.064Z,9.90
2024-02-18T10:20:31.411Z,9.90
2024-02-18T10:22:58.241Z,9.90
2024-02-18T10:25:26.063Z,9.90
2024-02-18T10:27:58.578Z,9.90
2024-02-18T10:30:25.669Z,9.90
2024-02-18T10:32:53.028Z,9.90
2024-02-18T10:35:22.201Z,9.80
2024-02-18T10:37:54.041Z,9.80
2024-02-18T10:40:40.357Z,9.80
2024-02-18T10:43:11.673Z,9.80
2024-02-18T10:45:41.438Z,9.90
2024-02-18T10:48:12.802Z,9.90
2024-02-18T10:50:45.212Z,9.90
2024-02-18T10:53:28.037Z,9.90
2024-02-18T10:56:20.338Z,9.90
2024-02-18T10:59:19.347Z,9.90
2024-02-18T11:01:56.980Z,9.90
2024-02-18T11:04:27.458Z,9.90
2024-02-18T11:06:56.694Z,9.90
2024-02-18T11:09:24.544Z,9.90
2024-02-18T11:11:53.844Z,9.90
2024-02-18T11:14:22.334Z,9.90
2024-02-18T11:16:49.198Z,9.90
2024-02-18T11:19:17.505Z,10.00
2024-02-18T11:21:45.220Z,10.00
2024-02-18T11:24:13.413Z,10.00
2024-02-18T11:26:40.320Z,10.00
2024-02-18T11:29:07.224Z,10.00
2024-02-18T11:31:37.444Z,10.00
2024-02-18T11:34:04.998Z,10.00
2024-02-18T11:36:31.963Z,10.00
2024-02-18T11:38:59.660Z,10.00
2024-02-18T11:41:33.697Z,10.00
2024-02-18T11:44:11.641Z,10.00
2024-02-18T11:46:41.290Z,10.10
2024-02-18T11:49:08.282Z,10.10
2024-02-18T11:51:36.191Z,10.10
2024-02-18T11:54:04.832Z,10.10
2024-02-18T11:56:31.534Z,10.10
2024-02-18T11:58:58.426Z,10.20
2024-02-18T12:01:27.058Z,10.10
2024-02-18T12:03:57.660Z,10.20
2024-02-18T12:06:25.115Z,10.20
2024-02-18T12:08:56.095Z,10.20
2024-02-18T12:11:22.934Z,10.10
2024-02-18T12:13:51.799Z,10.10
2024-02-18T12:16:19.681Z,10.20
2024-02-18T12:18:46.791Z,10.10
2024-02-18T12:21:16.568Z,10.10
2024-02-18T12:23:43.672Z,10.10
2024-02-18T12:26:14.576Z,10.10
2024-02-18T12:28:44.166Z,10.20
2024-02-18T12:31:14.232Z,10.10
2024-02-18T12:33:41.214Z,10.10
2024-02-18T12:36:08.467Z,10.10
2024-02-18T12:38:40.821Z,10.10
2024-02-18T12:41:08.670Z,10.10
2024-02-18T12:46:09.865Z,10.10
2024-02-18T12:48:38.357Z,10.10
2024-02-18T12:51:10.386Z,10.10
2024-02-18T12:53:41.545Z,10.10
2024-02-18T12:56:16.561Z,10.00
2024-02-18T12:58:43.274Z,10.00
2024-02-18T13:01:11.207Z,10.00
2024-02-18T13:03:39.793Z,10.00
2024-02-18T13:06:07.831Z,10.00
2024-02-18T13:08:37.592Z,10.00
2024-02-18T13:11:04.472Z,10.00
2024-02-18T13:13:31.237Z,10.00
2024-02-18T13:15:58.021Z,10.00
2024-02-18T13:18:24.889Z,10.00
2024-02-18T13:20:51.630Z,10.00
2024-02-18T13:23:18.306Z,10.00
2024-02-18T13:25:45.090Z,10.00
2024-02-18T13:28:14.395Z,10.00
2024-02-18T13:30:41.317Z,10.00
2024-02-18T13:33:08.165Z,10.00
2024-02-18T13:35:35.197Z,10.10
2024-02-18T13:38:02.178Z,10.10
2024-02-18T13:40:31.112Z,10.10
2024-02-18T13:42:58.699Z,10.10
2024-02-18T13:45:28.409Z,10.10
2024-02-18T13:47:59.839Z,10.10
2024-02-18T13:50:28.063Z,10.10
2024-02-18T13:52:54.985Z,10.10
2024-02-18T13:55:21.735Z,10.10
2024-02-18T13:57:48.399Z,10.20
2024-02-18T14:00:15.714Z,10.20
2024-02-18T14:02:45.854Z,10.20
2024-02-18T14:05:17.284Z,10.20
2024-02-18T14:07:44.046Z,10.30
2024-02-18T14:10:12.080Z,10.30
2024-02-18T14:12:39.373Z,10.40
2024-02-18T14:15:07.386Z,10.40
2024-02-18T14:17:34.144Z,10.50
2024-02-18T14:20:02.083Z,10.60
2024-02-18T14:22:30.590Z,10.60
2024-02-18T14:24:58.827Z,10.70
2024-02-18T14:27:26.479Z,10.70
2024-02-18T14:29:53.274Z,10.80
2024-02-18T14:32:21.462Z,10.80
2024-02-18T14:34:50.448Z,10.90
2024-02-18T14:37:17.225Z,10.90
2024-02-18T14:39:44.160Z,11.00
2024-02-18T14:42:12.334Z,11.00
2024-02-18T14:44:39.064Z,11.10
2024-02-18T14:47:06.056Z,11.10
2024-02-18T14:49:38.988Z,11.10
2024-02-18T14:52:11.596Z,11.10
2024-02-18T14:54:39.922Z,11.20
2024-02-18T14:57:06.718Z,11.20
2024-02-18T14:59:33.439Z,11.30
2024-02-18T15:02:00.182Z,11.30
2024-02-18T15:04:29.817Z,11.30
2024-02-18T15:06:56.858Z,11.40
2024-02-18T15:09:23.738Z,11.40
2024-02-18T15:11:54.090Z,11.50
2024-02-18T15:14:23.962Z,11.60
2024-02-18T15:16:51.208Z,11.60
2024-02-18T15:19:20.960Z,11.70
2024-02-18T15:21:49.474Z,11.70
2024-02-18T15:24:19.586Z,11.80
2024-02-18T15:26:46.591Z,11.80
2024-02-18T15:29:13.986Z,11.80
2024-02-18T15:31:40.925Z,11.90
2024-02-18T15:34:09.478Z,11.90
2024-02-18T15:36:38.184Z,11.90
2024-02-18T15:39:04.968Z,11.90
2024-02-18T15:41:31.907Z,11.90
2024-02-18T15:43:58.596Z,12.00
2024-02-18T15:46:25.381Z,12.00
2024-02-18T15:48:53.061Z,12.00
2024-02-18T15:51:20.318Z,11.90
2024-02-18T15:53:47.102Z,11.90
2024-02-18T15:56:24.436Z,11.90
2024-02-18T15:58:54.683Z,11.90
2024-02-18T16:01:21.548Z,11.80
2024-02-18T16:03:48.729Z,11.80
2024-02-18T16:06:17.920Z,11.80
2024-02-18T16:08:45.585Z,11.80
2024-02-18T16:11:12.741Z,11.80
2024-02-18T16:13:45.167Z,11.80
2024-02-18T16:16:12.785Z,11.70
2024-02-18T16:18:40.073Z,11.70
2024-02-18T16:21:06.876Z,11.70
2024-02-18T16:23:33.722Z,11.70
2024-02-18T16:26:00.969Z,11.60
2024-02-18T16:28:27.768Z,11.60
2024-02-18T16:30:54.569Z,11.60
2024-02-18T16:33:21.462Z,11.60
2024-02-18T16:35:48.245Z,11.50
2024-02-18T16:38:15.133Z,11.50
2024-02-18T16:40:41.866Z,11.50
2024-02-18T16:43:08.811Z,11.50
2024-02-18T16:45:35.670Z,11.40
2024-02-18T16:48:02.842Z,11.40
2024-02-18T16:50:29.601Z,11.40
2024-02-18T16:52:56.268Z,11.40
2024-02-18T16:55:23.174Z,11.40
2024-02-18T16:57:50.220Z,11.40
2024-02-18T17:00:17.312Z,11.40
2024-02-18T17:02:45.944Z,11.30
2024-02-18T17:05:16.424Z,11.30
2024-02-18T17:07:44.074Z,11.30
2024-02-18T17:10:11.090Z,11.30
2024-02-18T17:12:38.068Z,11.30
2024-02-18T17:15:05.587Z,11.30
2024-02-18T17:17:32.865Z,11.30
2024-02-18T17:19:59.848Z,11.20
2024-02-18T17:22:29.652Z,11.20
2024-02-18T17:24:56.688Z,11.20
2024-02-18T17:27:23.504Z,11.20
2024-02-18T17:29:50.449Z,11.10
2024-02-18T17:32:17.765Z,11.10
2024-02-18T17:34:45.039Z,11.10
2024-02-18T17:37:12.090Z,11.10
2024-02-18T17:39:40.485Z,11.10
2024-02-18T17:42:11.783Z,11.10
2024-02-18T17:44:38.687Z,11.10
2024-02-18T17:47:08.511Z,11.00
2024-02-18T17:49:35.353Z,11.00
2024-02-18T17:52:02.421Z,11.00
2024-02-18T17:54:29.281Z,11.00
2024-02-18T17:56:56.317Z,11.00
2024-02-18T17:59:23.006Z,10.90
2024-02-18T18:01:50.040Z,10.90
2024-02-18T18:04:17.022Z,10.90
2024-02-18T18:06:43.864Z,10.90
2024-02-18T18:09:10.797Z,10.90
2024-02-18T18:11:37.566Z,10.80
2024-02-18T18:14:04.436Z,10.80
2024-02-18T18:16:31.293Z,10.80
2024-02-18T18:18:58.089Z,10.80
2024-02-18T18:21:24.815Z,10.80
2024-02-18T18:23:56.115Z,10.80
2024-02-18T18:26:25.540Z,10.80
2024-02-18T18:28:52.460Z,10.80
2024-02-18T18:31:19.320Z,10.70
2024-02-18T18:33:46.580Z,10.70
2024-02-18T18:36:13.544Z,10.70
2024-02-18T18:38:40.220Z,10.70
2024-02-18T18:41:07.077Z,10.70
2024-02-18T18:43:34.407Z,10.70
2024-02-18T18:46:02.443Z,10.70
2024-02-18T18:48:30.220Z,10.80
2024-02-18T18:50:57.009Z,10.80
2024-02-18T18:53:23.713Z,10.70
2024-02-18T18:55:51.159Z,10.70
2024-02-18T18:58:18.774Z,10.70
2024-02-18T19:00:45.708Z,10.70
2024-02-18T19:03:12.531Z,10.60
2024-02-18T19:05:41.010Z,10.60
2024-02-18T19:08:07.882Z,10.60
2024-02-18T19:10:38.333Z,10.70
2024-02-18T19:13:18.242Z,10.60
2024-02-18T19:15:55.963Z,10.60
2024-02-18T19:18:22.811Z,10.60
2024-02-18T19:20:49.576Z,10.60
2024-02-18T19:23:20.314Z,10.60
2024-02-18T19:25:47.046Z,10.60
2024-02-18T19:28:15.492Z,10.60
2024-02-18T19:30:42.475Z,10.60
2024-02-18T19:33:10.037Z,10.60
2024-02-18T19:35:37.764Z,10.60
2024-02-18T19:38:04.613Z,10.60
2024-02-18T19:40:34.715Z,10.60
2024-02-18T19:43:01.877Z,10.60
2024-02-18T19:45:29.098Z,10.60
2024-02-18T19:47:58.320Z,10.60
2024-02-18T19:50:25.490Z,10.50
2024-02-18T19:52:57.779Z,10.50
2024-02-18T19:55:27.619Z,10.50
2024-02-18T19:57:54.340Z,10.50
2024-02-18T20:00:21.180Z,10.50
2024-02-18T20:02:47.957Z,10.50
2024-02-18T20:05:15.330Z,10.50
2024-02-18T20:07:42.104Z,10.40
2024-02-18T20:10:09.262Z,10.40
2024-02-18T20:12:37.090Z,10.40
2024-02-18T20:15:07.320Z,10.40
2024-02-18T20:17:34.184Z,10.40
2024-02-18T20:20:01.380Z,10.40
2024-02-18T20:22:28.164Z,10.40
2024-02-18T20:24:56.215Z,10.40
2024-02-18T20:27:23.078Z,10.40
2024-02-18T20:29:49.756Z,10.40
2024-02-18T20:32:16.541Z,10.40
2024-02-18T20:34:44.608Z,10.40
2024-02-18T20:37:11.743Z,10.40
2024-02-18T20:39:44.757Z,10.40
2024-02-18T20:42:11.842Z,10.40
2024-02-18T20:44:39.057Z,10.50
2024-02-18T20:47:08.083Z,10.40
2024-02-18T20:49:36.787Z,10.40
2024-02-18T20:52:04.211Z,10.40
2024-02-18T20:54:30.907Z,10.40
2024-02-18T20:56:57.743Z,10.40
2024-02-18T20:59:26.516Z,10.40
2024-02-18T21:01:53.510Z,10.40
2024-02-18T21:04:20.381Z,10.40
2024-02-18T21:06:47.296Z,10.40
2024-02-18T21:09:14.094Z,10.30
2024-02-18T21:11:41.215Z,10.30
2024-02-18T21:14:08.226Z,10.30
2024-02-18T21:16:35.192Z,10.30
2024-02-18T21:19:02.107Z,10.20
2024-02-18T21:21:28.850Z,10.20
2024-02-18T21:23:55.603Z,10.20
2024-02-18T21:26:22.514Z,10.20
2024-02-18T21:28:50.587Z,10.20
2024-02-18T21:31:18.598Z,10.20
2024-02-18T21:33:45.725Z,10.20
2024-02-18T21:36:16.854Z,10.20
2024-02-18T21:38:43.874Z,10.20
2024-02-18T21:41:13.551Z,10.20
2024-02-18T21:43:43.218Z,10.20
2024-02-18T21:46:11.742Z,10.20
2024-02-18T21:48:38.969Z,10.20
2024-02-18T21:51:07.778Z,10.20
2024-02-18T21:53:37.582Z,10.20
2024-02-18T21:56:07.696Z,10.20
2024-02-18T21:58:34.366Z,10.20
2024-02-18T22:01:01.255Z,10.20
2024-02-18T22:03:28.044Z,10.20
2024-02-18T22:05:54.923Z,10.20
2024-02-18T22:08:24.319Z,10.20
2024-02-18T22:10:52.476Z,10.20
2024-02-18T22:13:23.050Z,10.20
2024-02-18T22:15:50.463Z,10.20
2024-02-18T22:18:17.626Z,10.20
2024-02-18T22:20:44.990Z,10.20
2024-02-18T22:23:11.687Z,10.20
2024-02-18T22:25:38.431Z,10.20
2024-02-18T22:28:05.686Z,10.20
2024-02-18T22:30:32.829Z,10.20
2024-02-18T22:33:00.418Z,10.20
2024-02-18T22:35:27.266Z,10.20
2024-02-18T22:37:54.082Z,10.20
2024-02-18T22:40:21.727Z,10.20
2024-02-18T22:42:49.306Z,10.20
2024-02-18T22:45:20.257Z,10.20
2024-02-18T22:47:47.053Z,10.20
2024-02-18T22:50:14.013Z,10.20
2024-02-18T22:52:49.341Z,10.20
2024-02-18T22:55:16.256Z,10.20
2024-02-18T22:57:43.054Z,10.20
2024-02-18T23:00:18.176Z,10.10
2024-02-18T23:02:45.651Z,10.10
2024-02-18T23:05:15.968Z,10.10
2024-02-18T23:07:43.361Z,10.10
2024-02-18T23:10:10.212Z,10.10
2024-02-18T23:12:37.278Z,10.10
2024-02-18T23:15:04.276Z,10.10
2024-02-18T23:17:31.051Z,10.10
2024-02-18T23:19:57.847Z,10.10
2024-02-18T23:22:24.762Z,10.10
2024-02-18T23:24:51.782Z,10.10
2024-02-18T23:27:18.544Z,10.10
2024-02-18T23:29:48.275Z,10.10
2024-02-18T23:32:15.018Z,10.10
2024-02-18T23:34:41.939Z,10.10
2024-02-18T23:37:08.780Z,10.10
2024-02-18T23:39:35.514Z,10.10
2024-02-18T23:42:02.347Z,10.10
2024-02-18T23:44:29.095Z,10.10
2024-02-18T23:46:55.830Z,10.10
2024-02-18T23:49:24.211Z,10.10
2024-02-18T23:51:51.147Z,10.20
2024-02-18T23:54:20.991Z,10.20
2024-02-18T23:56:47.684Z,10.10
2024-02-18T23:59:14.547Z,10.10
